CDT,Max TemperatureF,Mean TemperatureF,Min TemperatureF,Max Dew PointF,MeanDew PointF,Min DewpointF,Max Humidity, Mean Humidity, Min Humidity, Max Sea Level PressureIn, Mean Sea Level PressureIn, Min Sea Level PressureIn, Max VisibilityMiles, Mean VisibilityMiles, Min VisibilityMiles, Max Wind SpeedMPH, Mean Wind SpeedMPH, Max Gust SpeedMPH,PrecipitationIn, CloudCover, Events, WindDirDegrees
2012-9-1,74,72,70,68,65,60,88,77,64,30.10,30.04,29.98,10,10,10,16,9,22,0.00,5,,46
2012-9-2,79,76,72,70,68,66,90,79,65,29.97,29.93,29.91,10,10,10,14,8,20,0.00,6,,57
2012-9-3,86,78,69,70,69,68,93,75,55,29.95,29.92,29.88,10,8,3,10,3,14,T,0,Rain,58
2012-9-4,88,77,65,72,69,59,94,79,49,29.95,29.89,29.83,10,10,10,30,6,47,0.54,3,Rain,85
2012-9-5,88,76,63,67,63,60,93,69,46,29.95,29.82,29.75,10,10,2,24,6,33,0.01,3,Rain,215
2012-9-6,86,75,64,66,61,49,90,65,29,29.94,29.91,29.84,10,10,8,14,4,17,0.00,0,,335
2012-9-7,79,69,58,65,60,54,90,77,54,29.91,29.84,29.78,10,10,6,23,7,31,0.07,4,Rain,348
2012-9-8,73,63,53,56,49,45,93,63,37,29.92,29.87,29.84,10,10,4,18,10,24,0.31,2,Rain,309
2012-9-9,71,62,52,54,51,45,97,73,42,30.17,30.04,29.87,10,10,9,15,7,21,0.01,1,,349
2012-9-10,76,63,50,52,49,46,89,62,35,30.24,30.17,30.11,10,10,10,15,4,18,0.00,0,,173
2012-9-11,84,68,52,55,51,47,80,54,34,30.16,30.11,30.05,10,10,2,21,11,28,0.00,0,,191
2012-9-12,87,75,63,58,56,53,75,52,35,30.17,30.12,30.08,10,10,9,18,8,25,0.00,0,,197
2012-9-13,72,63,54,57,52,48,100,77,57,30.35,30.28,30.15,10,9,5,16,7,21,0.15,6,Rain,344
2012-9-14,77,63,49,53,46,39,96,64,29,30.37,30.32,30.28,10,9,4,14,4,23,0.00,1,,314
2012-9-15,80,65,49,50,48,42,89,59,27,30.32,30.24,30.15,10,10,10,10,2,14,0.00,0,,99
2012-9-16,77,63,49,50,47,43,86,59,31,30.14,30.07,29.98,10,10,9,15,3,20,0.00,0,,214
2012-9-17,79,65,51,60,55,48,90,75,45,29.98,29.85,29.74,10,10,6,20,7,24,0.21,4,Rain,282
2012-9-18,62,52,42,52,40,31,87,63,33,30.06,29.92,29.81,10,10,9,21,10,28,T,3,Rain,327
2012-9-19,74,56,38,44,39,36,93,51,28,30.09,29.96,29.82,10,10,10,29,14,38,0.00,2,,196
2012-9-20,72,61,49,48,38,31,80,44,24,29.95,29.89,29.83,10,10,10,20,6,26,0.00,0,,276
2012-9-21,59,53,47,50,45,37,93,76,53,29.95,29.89,29.82,10,10,4,16,4,20,0.12,5,Rain,283
2012-9-22,59,52,45,49,40,34,93,70,48,30.19,29.98,29.82,10,10,6,29,10,38,0.01,3,Rain,298
2012-9-23,61,50,39,39,34,29,83,60,31,30.28,30.24,30.19,10,10,10,15,5,24,0.00,1,,309
2012-9-24,70,52,34,37,33,29,89,49,24,30.24,30.08,29.91,10,10,10,21,9,26,0.00,0,,216
2012-9-25,78,62,46,61,50,39,84,60,42,29.91,29.87,29.81,10,10,9,17,6,21,0.00,0,,200
2012-9-26,66,59,51,59,50,41,97,73,58,30.19,30.05,29.90,10,9,5,17,7,24,0.00,1,,21
2012-9-27,64,54,44,49,45,40,86,69,50,30.23,30.20,30.18,10,10,10,15,7,18,0.00,4,,359
2012-9-28,66,56,46,51,48,45,89,72,54,30.21,30.17,30.14,10,10,10,18,7,24,0.00,2,,12
2012-9-29,79,62,44,53,45,39,93,67,25,30.14,30.07,29.97,10,9,6,14,4,20,0.00,0,,337
2012-9-30,64,56,48,52,46,41,93,71,46,30.03,30.00,29.97,10,10,8,15,6,21,0.01,2,,26